Time;durP1;ratioP1;P1;durP2;ratioP2;P2;SDS_P1;SDS_P2;PMS_P1;PMS_P2;Temp;Humidity;BMP_temperature;BMP_pressure;BME280_temperature;BME280_humidity;BME280_pressure;Samples;Min_cycle;Max_cycle;Signal;HPM_P1;HPM_P2
2023/11/12 00:00:27;;;;;;;;;4.00;3.75;;;;;7.46;97.04;98478.16;6330539;20;1810906;-42
2023/11/12 00:02:56;;;;;;;;;4.75;4.00;;;;;7.60;96.27;98479.88;6333066;20;1814954;-41
2023/11/12 00:05:24;;;;;;;;;3.00;3.00;;;;;7.49;96.50;98482.44;6317971;20;2737800;-40
2023/11/12 00:07:52;;;;;;;;;4.50;3.00;;;;;7.30;96.43;98477.50;6330760;20;1815021;-40
2023/11/12 00:10:22;;;;;;;;;3.25;3.00;;;;;7.56;95.52;98478.38;6334999;20;1811903;-41
2023/11/12 00:12:50;;;;;;;;;3.75;3.00;;;;;7.43;96.19;98490.88;6330060;20;1820864;-40
2023/11/12 00:15:18;;;;;;;;;3.00;3.00;;;;;7.45;95.55;98479.13;6315080;20;2734688;-39
2023/11/12 00:17:46;;;;;;;;;3.50;3.50;;;;;7.40;96.25;98478.56;6315733;20;2746259;-47
2023/11/12 00:20:15;;;;;;;;;4.00;3.00;;;;;7.50;96.40;98489.47;6304319;20;1809761;-45
2023/11/12 00:22:43;;;;;;;;;6.00;4.00;;;;;7.53;95.63;98486.59;6313843;20;2747177;-45
2023/11/12 00:25:13;;;;;;;;;5.00;4.00;;;;;7.38;96.18;98493.00;6286057;20;2756555;-54
2023/11/12 00:27:41;;;;;;;;;5.00;5.00;;;;;7.25;95.96;98491.13;6285667;20;2743057;-40
2023/11/12 00:30:11;;;;;;;;;4.50;4.50;;;;;7.38;96.08;98498.31;6282261;20;2746094;-45
2023/11/12 00:32:39;;;;;;;;;3.50;3.50;;;;;7.33;95.03;98484.44;6283846;20;2746111;-47
2023/11/12 00:35:09;;;;;;;;;4.00;3.00;;;;;7.22;95.59;98486.00;6330947;20;1810842;-46
2023/11/12 00:37:38;;;;;;;;;3.00;1.00;;;;;7.39;95.13;98502.69;6333325;20;1819127;-46
2023/11/12 00:40:08;;;;;;;;;2.50;2.50;;;;;7.22;95.30;98506.53;6318624;20;2730661;-46
2023/11/12 00:42:39;;;;;;;;;6.50;3.75;;;;;7.20;95.67;98509.28;6329988;20;1823306;-45
2023/11/12 00:45:08;;;;;;;;;2.75;2.75;;;;;7.16;94.79;98505.13;6331564;20;1812491;-46
2023/11/12 00:47:37;;;;;;;;;4.00;4.00;;;;;7.17;94.90;98501.47;6332418;20;1813928;-45
2023/11/12 00:50:08;;;;;;;;;4.00;3.00;;;;;7.22;94.75;98499.34;6332885;20;1817034;-47
2023/11/12 00:52:37;;;;;;;;;2.50;2.00;;;;;7.21;94.15;98505.66;6329955;20;1807597;-45
2023/11/12 00:55:06;;;;;;;;;3.25;3.00;;;;;7.20;94.19;98513.75;6332608;20;1809727;-45
2023/11/12 00:57:35;;;;;;;;;2.50;2.50;;;;;7.22;94.10;98518.03;6331729;20;1820325;-47
2023/11/12 01:00:05;;;;;;;;;3.75;3.75;;;;;7.18;93.92;98508.50;6332627;20;1811811;-48
2023/11/12 01:02:33;;;;;;;;;3.00;2.00;;;;;7.13;94.07;98515.97;6314827;20;2750373;-51
2023/11/12 01:05:02;;;;;;;;;3.75;3.75;;;;;6.96;94.36;98516.25;6300846;20;1819185;-50
2023/11/12 01:07:31;;;;;;;;;4.00;2.00;;;;;7.00;94.04;98521.28;6331463;20;1818063;-54
2023/11/12 01:10:00;;;;;;;;;3.50;3.00;;;;;6.94;93.54;98516.34;6332396;20;1815993;-51
2023/11/12 01:12:28;;;;;;;;;2.00;2.00;;;;;7.00;92.94;98520.41;6330004;20;1809694;-50
2023/11/12 01:14:56;;;;;;;;;7.00;4.00;;;;;7.15;93.42;98513.22;6315581;20;2734700;-53
2023/11/12 01:17:24;;;;;;;;;2.50;2.50;;;;;6.94;93.44;98518.16;6283443;20;2756494;-51
2023/11/12 01:19:52;;;;;;;;;3.50;3.00;;;;;7.00;92.85;98518.63;6284929;20;2740000;-50
2023/11/12 01:22:20;;;;;;;;;3.00;3.00;;;;;6.78;93.78;98521.81;6312231;20;2755530;-52
2023/11/12 01:24:49;;;;;;;;;4.00;4.00;;;;;7.12;92.42;98526.78;6299997;20;1813918;-50
2023/11/12 01:27:17;;;;;;;;;3.00;3.00;;;;;7.26;91.33;98524.88;6329400;20;1806677;-53
2023/11/12 01:29:46;;;;;;;;;4.00;3.00;;;;;6.81;92.35;98526.09;6333465;20;1821214;-56
2023/11/12 01:32:14;;;;;;;;;5.00;3.00;;;;;6.89;91.34;98517.59;6309940;20;2755484;-47
2023/11/12 01:34:42;;;;;;;;;4.00;3.00;;;;;6.87;91.39;98527.50;6283198;20;2752370;-51
2023/11/12 01:37:09;;;;;;;;;4.00;4.00;;;;;6.65;92.97;98534.22;6281544;20;2756509;-48
2023/11/12 01:39:38;;;;;;;;;3.00;3.00;;;;;6.85;92.16;98537.44;6306367;20;1809810;-47
2023/11/12 01:42:11;;;;;;;;;2.75;2.75;;;;;6.78;90.96;98528.97;6326326;20;1810933;-49
2023/11/12 01:44:43;;;;;;;;;4.75;3.50;;;;;6.86;91.13;98532.00;6329998;20;1802443;-48
2023/11/12 01:47:14;;;;;;;;;6.50;4.50;;;;;6.80;91.02;98533.25;6328888;20;1825438;-50
2023/11/12 01:49:43;;;;;;;;;3.50;3.50;;;;;6.72;91.50;98534.72;6330781;20;1816059;-49
2023/11/12 01:52:13;;;;;;;;;6.00;4.00;;;;;6.70;90.76;98526.78;6328048;20;1823932;-51
2023/11/12 01:54:42;;;;;;;;;4.00;3.00;;;;;6.75;90.51;98535.34;6328125;20;1820193;-48
2023/11/12 01:57:10;;;;;;;;;3.00;3.00;;;;;6.78;90.40;98532.47;6308442;20;2748222;-49
2023/11/12 01:59:38;;;;;;;;;5.00;3.50;;;;;6.61;90.63;98538.06;6280992;20;2756586;-49
2023/11/12 02:02:08;;;;;;;;;3.50;2.75;;;;;6.74;90.30;98531.00;6295768;20;1813914;-51
2023/11/12 02:04:37;;;;;;;;;3.25;3.25;;;;;6.79;89.57;98547.56;6326317;20;1821246;-50
2023/11/12 02:07:06;;;;;;;;;7.00;4.25;;;;;6.80;89.14;98543.91;6330394;20;1816057;-52
2023/11/12 02:09:34;;;;;;;;;4.00;4.00;;;;;6.75;89.33;98554.03;6330138;20;1820969;-50
2023/11/12 02:12:04;;;;;;;;;4.00;4.00;;;;;6.68;89.76;98546.50;6329362;20;1815054;-47
2023/11/12 02:14:33;;;;;;;;;4.00;4.00;;;;;6.50;89.19;98551.19;6329953;20;1817833;-44
2023/11/12 02:17:02;;;;;;;;;3.00;3.00;;;;;6.64;89.90;98543.19;6327819;20;1817123;-47
2023/11/12 02:19:31;;;;;;;;;3.75;3.75;;;;;6.51;89.08;98548.44;6329469;20;1817002;-44
2023/11/12 02:22:00;;;;;;;;;3.50;3.50;;;;;6.58;89.27;98560.44;6329679;20;1814373;-48
2023/11/12 02:24:28;;;;;;;;;5.75;3.75;;;;;6.59;89.06;98556.81;6329626;20;1817060;-44
2023/11/12 02:26:56;;;;;;;;;3.00;3.00;;;;;6.51;88.59;98564.44;6316037;20;2739885;-48
2023/11/12 02:29:25;;;;;;;;;3.50;3.50;;;;;6.56;88.80;98564.16;6328055;20;1807585;-47
2023/11/12 02:31:54;;;;;;;;;3.00;3.00;;;;;6.56;88.47;98567.69;6327891;20;1812883;-45
2023/11/12 02:34:22;;;;;;;;;5.50;3.00;;;;;6.66;88.66;98567.97;6329359;20;1811248;-45
2023/11/12 02:36:50;;;;;;;;;3.00;3.00;;;;;6.40;89.19;98566.06;6313329;20;2752786;-45
2023/11/12 02:39:22;;;;;;;;;3.75;3.75;;;;;6.62;88.26;98561.09;6329040;20;1815977;-45
2023/11/12 02:41:51;;;;;;;;;10.00;4.00;;;;;6.38;88.94;98569.69;6322996;20;1820145;-49
2023/11/12 02:44:19;;;;;;;;;4.00;4.00;;;;;6.49;89.25;98568.16;6312288;20;2756578;-49
2023/11/12 02:46:47;;;;;;;;;3.00;3.00;;;;;6.48;89.10;98574.47;6282747;20;2751454;-47
2023/11/12 02:50:14;;;;;;;;;7.50;6.00;;;;;6.50;89.19;98578.75;6282348;20;2751369;-47
2023/11/12 02:52:41;;;;;;;;;8.00;4.00;;;;;6.73;89.99;98579.94;6280171;20;2749309;-45
2023/11/12 02:55:10;;;;;;;;;3.50;3.50;;;;;6.39;88.60;98583.88;6299336;20;1817025;-45
2023/11/12 02:57:39;;;;;;;;;3.00;3.00;;;;;6.46;88.45;98587.03;6328175;20;1822357;-44
2023/11/12 03:00:08;;;;;;;;;3.00;3.00;;;;;6.37;88.84;98589.31;6335378;20;1807039;-46
2023/11/12 03:02:36;;;;;;;;;7.00;4.00;;;;;6.25;89.21;98583.88;6316485;20;2742039;-46
2023/11/12 03:05:10;;;;;;;;;6.25;6.00;;;;;6.36;88.58;98595.59;6333421;20;1814928;-48
2023/11/12 03:07:39;;;;;;;;;3.75;3.75;;;;;6.20;89.78;98596.63;6333042;20;1819213;-44
2023/11/12 03:10:09;;;;;;;;;5.50;4.00;;;;;6.19;89.39;98606.44;6333276;20;1821309;-46
2023/11/12 03:12:38;;;;;;;;;3.00;3.00;;;;;6.19;89.24;98598.44;6333135;20;1823434;-46
2023/11/12 03:15:09;;;;;;;;;4.00;4.00;;;;;6.35;89.01;98601.03;6333708;20;1821221;-45
2023/11/12 03:17:40;;;;;;;;;5.50;4.00;;;;;6.18;89.14;98604.72;6333371;20;1817053;-46
2023/11/12 03:20:10;;;;;;;;;6.50;4.00;;;;;6.14;89.07;98613.84;6333275;20;1823397;-45
2023/11/12 03:22:38;;;;;;;;;10.00;6.00;;;;;6.13;89.22;98606.78;6331585;20;1819201;-51
2023/11/12 03:25:09;;;;;;;;;6.00;6.00;;;;;6.18;89.54;98615.38;6333203;20;1817053;-50
2023/11/12 03:27:38;;;;;;;;;4.00;4.00;;;;;6.13;89.99;98621.00;6316260;20;2756563;-52
2023/11/12 03:30:09;;;;;;;;;5.00;4.00;;;;;6.27;89.03;98622.81;6286718;20;2756537;-48
2023/11/12 03:32:38;;;;;;;;;4.00;4.00;;;;;6.18;89.81;98631.34;6298570;20;1825878;-51
2023/11/12 03:35:06;;;;;;;;;6.00;3.50;;;;;6.17;90.09;98635.00;6313692;20;2752358;-51
2023/11/12 03:37:38;;;;;;;;;5.25;4.00;;;;;6.06;90.20;98630.31;6332551;20;1810802;-48
2023/11/12 03:40:09;;;;;;;;;6.00;6.00;;;;;6.08;89.81;98635.53;6334154;20;1821281;-54
2023/11/12 03:42:37;;;;;;;;;3.75;2.75;;;;;6.02;89.79;98630.56;6332148;20;1814984;-52
2023/11/12 03:45:07;;;;;;;;;4.00;4.00;;;;;6.03;90.50;98632.28;6333568;20;1811766;-54
2023/11/12 03:47:36;;;;;;;;;7.75;6.75;;;;;6.00;90.92;98640.47;6331561;20;1825394;-50
2023/11/12 03:50:05;;;;;;;;;4.00;4.00;;;;;5.93;90.17;98638.19;6331634;20;1816026;-53
2023/11/12 03:52:33;;;;;;;;;7.50;4.00;;;;;5.87;90.54;98638.50;6315441;20;2754446;-51
2023/11/12 03:55:02;;;;;;;;;6.00;3.50;;;;;5.90;91.66;98633.00;6286480;20;2752453;-53
2023/11/12 03:57:31;;;;;;;;;7.50;6.25;;;;;5.97;90.77;98641.50;6301199;20;1811821;-48
2023/11/12 03:59:59;;;;;;;;;4.75;4.75;;;;;6.05;89.86;98641.03;6333205;20;1814092;-51
2023/11/12 04:02:28;;;;;;;;;6.25;4.00;;;;;5.96;90.62;98641.63;6332386;20;1818118;-52
2023/11/12 04:04:57;;;;;;;;;6.75;4.00;;;;;5.86;90.84;98636.78;6334554;20;1816042;-49
2023/11/12 04:07:26;;;;;;;;;7.00;5.00;;;;;5.86;90.87;98631.44;6334854;20;1809731;-53
2023/11/12 04:09:54;;;;;;;;;4.00;4.00;;;;;5.91;90.38;98640.03;6316321;20;2750303;-48
2023/11/12 04:12:24;;;;;;;;;3.50;3.50;;;;;5.95;90.04;98638.09;6333652;20;1820205;-49
2023/11/12 04:14:53;;;;;;;;;6.00;6.00;;;;;5.94;90.00;98642.53;6334149;20;1820188;-49
2023/11/12 04:17:21;;;;;;;;;6.50;4.00;;;;;5.86;89.66;98642.09;6331131;20;1819241;-50
2023/11/12 04:19:50;;;;;;;;;6.25;3.50;;;;;5.91;89.63;98645.34;6335615;20;1821343;-51
2023/11/12 04:22:19;;;;;;;;;4.50;3.00;;;;;5.82;91.23;98647.69;6333045;20;1808675;-50
2023/11/12 04:24:51;;;;;;;;;4.75;4.00;;;;;5.84;91.02;98648.47;6332846;20;1825423;-52
2023/11/12 04:27:21;;;;;;;;;6.00;4.00;;;;;5.81;90.67;98648.66;6333736;20;1817089;-48
2023/11/12 04:29:51;;;;;;;;;3.00;3.00;;;;;5.86;91.16;98647.44;6332985;20;1825379;-54
2023/11/12 04:32:19;;;;;;;;;8.50;5.00;;;;;5.80;91.14;98661.13;6312747;20;2751791;-49
2023/11/12 04:34:47;;;;;;;;;3.50;3.50;;;;;5.77;91.71;98661.31;6299606;20;1813510;-55
2023/11/12 04:37:16;;;;;;;;;2.25;2.25;;;;;5.87;90.70;98665.16;6333596;20;1822274;-51
2023/11/12 04:39:45;;;;;;;;;4.00;4.00;;;;;5.78;91.00;98670.16;6332075;20;1820189;-51
2023/11/12 04:42:13;;;;;;;;;5.00;5.00;;;;;5.63;91.11;98662.09;6329906;20;1818062;-47
2023/11/12 04:44:41;;;;;;;;;7.00;6.00;;;;;5.64;91.41;98674.47;6314302;20;2748226;-51
2023/11/12 04:47:09;;;;;;;;;9.00;4.00;;;;;5.59;92.24;98665.03;6283711;20;2749401;-48
2023/11/12 04:49:38;;;;;;;;;5.00;5.00;;;;;5.66;91.18;98687.69;6285657;20;2735709;-49
2023/11/12 04:52:06;;;;;;;;;7.00;6.00;;;;;5.47;91.69;98680.75;6328373;20;1803591;-51
2023/11/12 04:54:35;;;;;;;;;8.25;4.75;;;;;5.60;91.59;98683.56;6328350;20;1817039;-52
2023/11/12 04:57:04;;;;;;;;;7.25;6.00;;;;;5.60;90.78;98675.59;6331991;20;1819130;-50
2023/11/12 04:59:33;;;;;;;;;4.50;4.50;;;;;5.33;91.94;98678.03;6333117;20;1820184;-49
2023/11/12 05:02:01;;;;;;;;;7.25;4.00;;;;;5.52;92.07;98684.97;6331538;20;1823204;-49
2023/11/12 05:04:31;;;;;;;;;4.00;4.00;;;;;5.49;91.64;98683.34;6333105;20;1818068;-51
2023/11/12 05:06:58;;;;;;;;;4.50;3.00;;;;;5.59;91.42;98686.34;6314423;20;2749348;-49
2023/11/12 05:09:27;;;;;;;;;5.50;4.00;;;;;5.52;90.93;98692.97;6301593;20;1819230;-47
2023/11/12 05:11:56;;;;;;;;;4.50;2.25;;;;;5.56;90.86;98694.50;6331238;20;1825412;-50
2023/11/12 05:14:25;;;;;;;;;3.00;3.00;;;;;5.60;90.53;98688.03;6332704;20;1822316;-48
2023/11/12 05:16:53;;;;;;;;;7.00;4.00;;;;;5.56;91.32;98692.69;6330560;20;1823004;-50
2023/11/12 05:19:21;;;;;;;;;13.00;7.00;;;;;5.28;91.86;98702.22;6315373;20;2761871;-48
2023/11/12 05:21:49;;;;;;;;;9.00;7.00;;;;;5.48;91.13;98709.09;6312296;20;2735742;-48
2023/11/12 05:24:18;;;;;;;;;2.00;2.00;;;;;5.42;91.17;98706.78;6331766;20;1811790;-50
2023/11/12 05:26:46;;;;;;;;;7.50;6.00;;;;;5.66;90.69;98706.31;6328998;20;1812836;-50
2023/11/12 05:29:15;;;;;;;;;10.75;7.50;;;;;5.37;91.76;98713.31;6331756;20;1815073;-48
2023/11/12 05:31:43;;;;;;;;;17.00;12.00;;;;;5.46;91.54;98718.97;6313920;20;2798278;-49
2023/11/12 05:34:13;;;;;;;;;11.00;9.00;;;;;5.61;90.99;98722.59;6282593;20;2775274;-49
2023/11/12 05:36:41;;;;;;;;;11.00;10.00;;;;;5.71;92.87;98729.09;6284311;20;2772147;-49
2023/11/12 05:39:12;;;;;;;;;7.00;6.00;;;;;5.58;90.35;98729.88;6300015;20;1807587;-51
2023/11/12 05:41:41;;;;;;;;;11.50;7.00;;;;;5.57;90.93;98730.81;6308086;20;2754462;-52
2023/11/12 05:44:09;;;;;;;;;10.00;10.00;;;;;5.63;91.04;98733.13;6280004;20;2779582;-52
2023/11/12 05:46:39;;;;;;;;;10.75;8.75;;;;;5.59;91.79;98739.59;6321722;20;2504490;-50
2023/11/12 05:49:08;;;;;;;;;6.25;4.25;;;;;5.75;90.95;98732.44;6301565;20;1823830;-49
2023/11/12 05:51:37;;;;;;;;;9.00;6.00;;;;;5.67;90.19;98727.56;6329005;20;1818128;-49
2023/11/12 05:54:06;;;;;;;;;7.50;6.75;;;;;5.60;90.85;98730.66;6332001;20;1819628;-49
2023/11/12 05:56:35;;;;;;;;;4.50;4.25;;;;;5.78;90.21;98729.59;6328577;20;1821235;-51
2023/11/12 05:59:04;;;;;;;;;7.75;6.00;;;;;5.82;89.91;98731.16;6328545;20;1805577;-48
2023/11/12 06:01:31;;;;;;;;;9.00;7.00;;;;;5.73;90.18;98747.66;6312133;20;2748238;-54
2023/11/12 06:04:02;;;;;;;;;5.00;4.00;;;;;5.77;90.60;98743.03;6300109;20;1818107;-51
2023/11/12 06:06:31;;;;;;;;;6.00;5.00;;;;;5.71;90.68;98745.09;6327106;20;1819125;-51
2023/11/12 06:09:00;;;;;;;;;3.50;3.50;;;;;5.56;90.89;98747.75;6330477;20;1823272;-54
2023/11/12 06:11:28;;;;;;;;;8.00;6.50;;;;;5.77;90.87;98754.53;6329129;20;1818810;-49
2023/11/12 06:13:57;;;;;;;;;8.00;8.00;;;;;5.77;90.34;98753.69;6330535;20;1819180;-51
2023/11/12 06:16:25;;;;;;;;;12.00;9.00;;;;;5.69;91.30;98762.09;6311391;20;2772245;-52
2023/11/12 06:18:55;;;;;;;;;9.00;9.00;;;;;5.80;91.22;98767.66;6306018;20;2748302;-50
2023/11/12 06:21:25;;;;;;;;;9.80;9.80;;;;;5.73;91.45;98774.28;6335214;20;2752365;-53
2023/11/12 06:23:53;;;;;;;;;7.00;7.00;;;;;5.83;91.51;98777.28;6282577;20;2734662;-50
2023/11/12 06:26:21;;;;;;;;;8.50;8.50;;;;;5.68;91.64;98776.34;6327644;20;1819065;-50
2023/11/12 06:28:50;;;;;;;;;7.00;7.00;;;;;5.95;91.06;98779.28;6313756;20;2748331;-48
2023/11/12 06:31:18;;;;;;;;;7.00;7.00;;;;;5.85;91.50;98778.91;6295719;20;1813353;-50
2023/11/12 06:33:47;;;;;;;;;6.75;6.75;;;;;6.08;90.32;98784.75;6333172;20;1816034;-51
2023/11/12 06:36:16;;;;;;;;;8.50;7.25;;;;;6.84;88.03;98783.84;6333710;20;1821254;-49
2023/11/12 06:38:46;;;;;;;;;8.00;6.50;;;;;7.10;86.88;98785.75;6334125;20;1803509;-48
2023/11/12 06:41:14;;;;;;;;;7.50;7.00;;;;;8.89;80.13;98791.91;6318448;20;2748233;-50
2023/11/12 06:43:45;;;;;;;;;5.17;5.17;;;;;11.02;63.84;98799.56;6359814;20;1796099;-49
2023/11/12 06:46:13;;;;;;;;;13.50;11.00;;;;;10.42;61.71;98795.25;6285190;20;2784689;-49
2023/11/12 06:48:41;;;;;;;;;6.25;4.75;;;;;11.71;57.39;98801.31;6306602;20;1803015;-52
2023/11/12 06:51:19;;;;;;;;;8.00;7.00;;;;;11.29;58.47;98801.06;6316558;20;2746171;-50
2023/11/12 06:53:51;;;;;;;;;13.00;13.00;;;;;13.54;51.59;98805.75;6330957;20;1879449;-51
2023/11/12 06:56:19;;;;;;;;;8.00;6.50;;;;;14.31;48.54;98813.22;6313990;20;2746079;-51
2023/11/12 06:58:49;;;;;;;;;9.80;9.00;;;;;13.86;49.50;98816.38;6310305;20;2771207;-50
2023/11/12 07:01:18;;;;;;;;;13.00;13.00;;;;;13.89;49.06;98817.94;6282691;20;3520219;-52
2023/11/12 07:03:47;;;;;;;;;9.00;9.00;;;;;14.40;47.05;98825.88;6314474;20;2750366;-52
2023/11/12 07:06:15;;;;;;;;;12.67;9.67;;;;;14.47;48.39;98820.75;6282902;20;2783607;-42
2023/11/12 07:08:44;;;;;;;;;14.50;9.50;;;;;11.76;52.51;98815.25;6317224;20;2779462;-41
2023/11/12 07:11:12;;;;;;;;;15.00;12.50;;;;;8.14;68.38;98816.53;6282846;20;2788900;-42
2023/11/12 07:13:39;;;;;;;;;8.00;7.00;;;;;7.44;75.07;98816.56;6287499;20;2751305;-45
2023/11/12 07:16:18;;;;;;;;;13.00;12.00;;;;;7.73;76.00;98815.66;6281753;20;2794107;-44
2023/11/12 07:18:48;;;;;;;;;16.80;13.60;;;;;7.30;78.08;98813.91;6337624;20;2808611;-41
2023/11/12 07:21:30;;;;;;;;;9.71;8.57;;;;;7.59;77.70;98830.75;6328780;20;1804905;-41
2023/11/12 07:23:59;;;;;;;;;13.00;12.00;;;;;7.64;77.33;98823.31;6315835;20;2781628;-46
2023/11/12 07:26:29;;;;;;;;;17.20;12.00;;;;;7.68;76.63;98818.63;6307453;20;2806521;-46
2023/11/12 07:28:57;;;;;;;;;11.00;8.00;;;;;7.41;76.91;98826.56;6285081;20;2756535;-45
2023/11/12 07:31:25;;;;;;;;;12.50;9.00;;;;;7.76;75.62;98827.00;6283960;20;2769112;-46
2023/11/12 07:33:55;;;;;;;;;11.40;10.00;;;;;7.77;76.12;98827.91;6308747;20;2777721;-40
2023/11/12 07:36:24;;;;;;;;;12.00;11.00;;;;;7.48;76.72;98828.78;6279585;20;2742985;-41
2023/11/12 07:38:52;;;;;;;;;9.00;9.00;;;;;7.97;75.84;98830.13;6288075;20;2746164;-41
2023/11/12 07:41:23;;;;;;;;;11.80;9.60;;;;;7.63;77.15;98826.94;6305498;20;2781579;-41
2023/11/12 07:43:51;;;;;;;;;12.00;10.00;;;;;7.91;76.10;98833.19;6282552;20;2785195;-40
2023/11/12 07:46:19;;;;;;;;;11.50;11.50;;;;;7.80;77.18;98833.03;6284492;20;2794034;-44
2023/11/12 07:48:47;;;;;;;;;11.00;11.00;;;;;7.92;75.57;98842.91;6285181;20;2787861;-46
2023/11/12 07:51:15;;;;;;;;;12.00;12.00;;;;;7.93;75.25;98833.97;6281863;20;2802339;-44
2023/11/12 07:53:45;;;;;;;;;10.60;9.60;;;;;7.85;75.88;98836.28;6307740;20;2789842;-44
2023/11/12 07:56:14;;;;;;;;;10.33;10.33;;;;;8.26;75.51;98841.59;6284765;20;2788853;-44
2023/11/12 07:58:46;;;;;;;;;11.57;10.29;;;;;8.14;73.93;98848.59;6356502;20;1796086;-46
2023/11/12 08:01:14;;;;;;;;;11.50;10.00;;;;;8.00;74.42;98853.97;6299892;20;2787859;-39
2023/11/12 08:03:44;;;;;;;;;11.00;9.00;;;;;8.10;74.75;98862.25;6309076;20;2783737;-43
2023/11/12 08:06:13;;;;;;;;;11.50;10.00;;;;;8.41;73.35;98855.81;6279983;20;2792010;-46
2023/11/12 08:08:42;;;;;;;;;17.00;15.00;;;;;8.45;73.74;98865.34;6281079;20;3541981;-44
2023/11/12 08:11:17;;;;;;;;;13.00;13.00;;;;;8.54;72.55;98872.75;6288593;20;2800293;-43
2023/11/12 08:13:47;;;;;;;;;20.00;17.00;;;;;8.41;72.58;98877.22;6286641;20;2831645;-43
2023/11/12 08:16:16;;;;;;;;;11.00;8.33;;;;;8.45;73.15;98875.19;6314565;20;2763086;-48
2023/11/12 08:18:44;;;;;;;;;11.50;11.50;;;;;8.81;71.44;98885.25;6320405;20;2796101;-45
2023/11/12 08:21:13;;;;;;;;;11.00;11.00;;;;;8.51;72.23;98880.13;6283038;20;2794192;-45
2023/11/12 08:23:42;;;;;;;;;12.00;11.00;;;;;8.92;71.92;98882.69;6284392;20;3513908;-47
2023/11/12 08:26:11;;;;;;;;;9.50;8.75;;;;;8.95;71.36;98882.53;6333212;20;1811447;-45
2023/11/12 08:28:40;;;;;;;;;15.33;11.67;;;;;9.31;71.73;98878.25;6313018;20;2803529;-37
2023/11/12 08:31:08;;;;;;;;;14.00;10.50;;;;;9.05;71.13;98882.72;6314545;20;2788819;-43
2023/11/12 08:33:36;;;;;;;;;10.50;10.50;;;;;9.06;70.58;98888.94;6282190;20;2791945;-43
2023/11/12 08:36:04;;;;;;;;;8.50;7.00;;;;;9.17;69.81;98887.25;6282508;20;2751780;-48
2023/11/12 08:38:35;;;;;;;;;9.00;7.50;;;;;9.30;69.31;98876.56;6284652;20;2748241;-39
2023/11/12 08:41:05;;;;;;;;;8.00;6.50;;;;;9.15;69.24;98886.50;6282483;20;2734672;-46
2023/11/12 08:43:33;;;;;;;;;11.00;8.50;;;;;9.47;70.62;98894.13;6287423;20;2762854;-45
2023/11/12 08:46:02;;;;;;;;;6.00;5.00;;;;;9.58;68.77;98896.06;6304331;20;1804589;-43
2023/11/12 08:48:33;;;;;;;;;8.00;7.00;;;;;9.39;69.62;98901.84;6311096;20;2745506;-38
2023/11/12 08:51:02;;;;;;;;;15.00;14.00;;;;;9.47;69.52;98895.94;6281816;20;3532593;-38
2023/11/12 08:53:30;;;;;;;;;15.50;13.50;;;;;9.43;69.13;98898.84;6313431;20;2807548;-46
2023/11/12 08:55:58;;;;;;;;;12.50;8.50;;;;;9.63;68.72;98904.63;6283494;20;2769506;-40
2023/11/12 08:58:28;;;;;;;;;7.50;7.50;;;;;9.95;67.47;98910.38;6303024;20;1805658;-40
2023/11/12 09:00:57;;;;;;;;;9.00;7.50;;;;;9.89;67.49;98903.63;6314310;20;2742050;-40
2023/11/12 09:03:26;;;;;;;;;10.50;9.00;;;;;9.83;67.08;98909.44;6283848;20;2767970;-45
2023/11/12 09:05:54;;;;;;;;;9.00;9.00;;;;;9.69;68.65;98909.56;6285029;20;2748332;-49
2023/11/12 09:08:22;;;;;;;;;7.00;7.00;;;;;9.92;67.46;98909.75;6282922;20;2727450;-45
2023/11/12 09:10:50;;;;;;;;;7.00;6.00;;;;;9.80;67.97;98906.13;6283881;20;2754584;-48
2023/11/12 09:13:18;;;;;;;;;15.00;13.50;;;;;10.22;66.72;98902.19;6282431;20;2791143;-51
2023/11/12 09:15:47;;;;;;;;;11.00;8.00;;;;;10.11;67.06;98910.16;6279369;20;2759665;-41
2023/11/12 09:18:15;;;;;;;;;11.00;8.00;;;;;10.38;66.67;98906.47;6280018;20;2752487;-39
2023/11/12 09:20:43;;;;;;;;;8.00;7.00;;;;;10.62;64.70;98904.66;6278067;20;2746164;-49
2023/11/12 09:23:11;;;;;;;;;6.00;6.00;;;;;10.13;65.39;98918.09;6276276;20;2748320;-46
2023/11/12 09:25:39;;;;;;;;;10.00;7.33;;;;;9.97;65.03;98918.31;6278208;20;3473165;-51
2023/11/12 09:28:07;;;;;;;;;8.50;8.50;;;;;10.70;64.94;98918.34;6269233;20;2744040;-41
2023/11/12 09:30:36;;;;;;;;;12.80;11.40;;;;;10.51;63.17;98909.97;6299666;20;2789905;-41
2023/11/12 09:33:24;;;;;;;;;5.50;5.50;;;;;10.64;62.26;98918.81;6281289;20;2741009;-43
2023/11/12 09:35:52;;;;;;;;;8.00;5.00;;;;;10.24;62.83;98916.34;6273453;20;2747328;-42
2023/11/12 09:38:21;;;;;;;;;5.50;5.00;;;;;10.26;62.23;98903.66;6278031;20;2743167;-43
2023/11/12 09:40:50;;;;;;;;;8.50;7.00;;;;;10.87;61.85;98918.91;6279012;20;2730484;-44
2023/11/12 09:43:20;;;;;;;;;6.25;6.00;;;;;10.66;61.32;98916.00;6292237;20;1809883;-43
2023/11/12 09:45:55;;;;;;;;;7.00;7.00;;;;;10.71;61.27;98925.44;6310318;20;2741971;-44
2023/11/12 09:48:42;;;;;;;;;7.00;7.00;;;;;11.23;59.88;98925.16;6274525;20;2748338;-45
2023/11/12 09:51:11;;;;;;;;;8.50;7.00;;;;;11.16;59.50;98914.91;6275519;20;2738926;-53
2023/11/12 09:53:44;;;;;;;;;7.00;7.00;;;;;11.05;60.57;98920.22;6277386;20;2731535;-51
2023/11/12 09:56:14;;;;;;;;;6.40;6.40;;;;;10.83;60.83;98922.81;6298720;20;2741080;-50
2023/11/12 09:58:45;;;;;;;;;6.00;6.00;;;;;11.03;61.90;98924.84;6309021;20;2748482;-50
2023/11/12 10:01:16;;;;;;;;;6.14;5.29;;;;;10.66;60.58;98922.22;6317579;20;1796247;-44
2023/11/12 10:03:48;;;;;;;;;14.00;14.00;;;;;11.05;59.86;98922.06;6309365;20;2800509;-44
2023/11/12 10:06:22;;;;;;;;;5.00;5.00;;;;;10.81;59.43;98930.13;6277519;20;2737836;-45
2023/11/12 10:08:51;;;;;;;;;4.00;4.00;;;;;10.67;58.43;98936.53;6273644;20;2751415;-41
2023/11/12 10:11:24;;;;;;;;;5.20;5.20;;;;;10.71;59.04;98930.78;6297621;20;2734646;-50
2023/11/12 10:13:52;;;;;;;;;4.00;4.00;;;;;10.69;57.99;98935.44;6308724;20;2755544;-51
2023/11/12 10:16:32;;;;;;;;;7.00;7.00;;;;;10.65;58.66;98923.22;6273814;20;2746108;-53
2023/11/12 10:19:13;;;;;;;;;5.50;4.00;;;;;10.98;58.19;98932.41;6275166;20;2740911;-42
2023/11/12 10:22:00;;;;;;;;;7.00;7.00;;;;;10.88;59.32;98931.38;6270987;20;2750313;-51
2023/11/12 10:24:30;;;;;;;;;9.50;8.00;;;;;11.02;59.24;98925.81;6274482;20;2758637;-54
2023/11/12 10:27:07;;;;;;;;;3.50;3.50;;;;;10.57;58.27;98939.03;6277773;20;2750297;-52
2023/11/12 10:29:35;;;;;;;;;6.00;6.00;;;;;11.09;57.96;98929.75;6272153;20;2736861;-54
2023/11/12 10:32:05;;;;;;;;;7.00;6.00;;;;;11.09;57.01;98924.41;6276740;20;2740001;-54
2023/11/12 10:34:36;;;;;;;;;11.40;9.00;;;;;11.37;56.59;98933.00;6295684;20;2769165;-55
2023/11/12 10:37:10;;;;;;;;;9.20;8.60;;;;;11.35;56.00;98938.53;6295013;20;2754468;-51
2023/11/12 10:39:40;;;;;;;;;12.50;12.00;;;;;11.54;56.41;98937.97;6309323;20;2778458;-45
2023/11/12 10:42:26;;;;;;;;;8.00;7.50;;;;;11.35;55.81;98943.91;6273764;20;2740910;-44
2023/11/12 10:45:00;;;;;;;;;5.00;5.00;;;;;11.13;55.95;98936.59;6275374;20;2751375;-46
2023/11/12 10:47:30;;;;;;;;;6.50;6.50;;;;;11.39;56.51;98941.81;6271629;20;2743088;-48
2023/11/12 10:49:59;;;;;;;;;6.00;4.00;;;;;11.24;58.04;98943.00;6273611;20;2745098;-42
2023/11/12 10:52:29;;;;;;;;;9.50;8.00;;;;;11.11;59.26;98946.63;6269699;20;2750329;-51
2023/11/12 10:54:59;;;;;;;;;5.00;5.00;;;;;11.33;57.60;98948.53;6273859;20;2741974;-53
2023/11/12 10:57:31;;;;;;;;;10.40;8.40;;;;;11.50;57.72;98949.91;6295124;20;2754456;-53
2023/11/12 11:00:06;;;;;;;;;7.00;7.00;;;;;11.52;59.25;98947.97;6272884;20;2735722;-52
2023/11/12 11:02:37;;;;;;;;;6.00;6.00;;;;;11.37;60.17;98946.44;6279748;20;2616980;-50
2023/11/12 11:05:08;;;;;;;;;3.80;3.80;;;;;11.51;60.35;98951.63;6297040;20;2748281;-44
2023/11/12 11:07:37;;;;;;;;;8.50;7.00;;;;;11.16;60.16;98949.84;6304647;20;2746115;-48
2023/11/12 11:10:09;;;;;;;;;6.43;6.43;;;;;11.17;60.16;98954.22;6316945;20;1796572;-42
2023/11/12 11:12:38;;;;;;;;;9.00;7.50;;;;;10.99;58.38;98955.59;6305884;20;2748205;-41
2023/11/12 11:15:45;;;;;;;;;7.00;5.00;;;;;11.34;58.88;98960.13;6273944;20;2748313;-43
2023/11/12 11:18:31;;;;;;;;;6.50;6.50;;;;;11.02;59.50;98960.75;6275476;20;2742044;-45
2023/11/12 11:21:17;;;;;;;;;7.00;7.00;;;;;11.50;58.34;98963.34;6280683;20;2756554;-40
2023/11/12 11:23:55;;;;;;;;;8.00;8.00;;;;;11.39;58.96;98963.31;6280011;20;2751362;-40
2023/11/12 11:26:39;;;;;;;;;11.40;10.00;;;;;11.29;59.30;98970.38;6304654;20;2798335;-41
2023/11/12 11:29:13;;;;;;;;;8.80;7.60;;;;;11.57;57.65;98977.19;6305319;20;2741980;-42
2023/11/12 11:31:47;;;;;;;;;7.00;5.00;;;;;11.44;58.82;98971.91;6278475;20;2743076;-43